createdAt,value
2019-03-20T00:00:01.761Z,101037.10
2019-03-20T00:02:29.557Z,101036.69
2019-03-20T00:04:59.253Z,101035.90
2019-03-20T00:07:27.063Z,101031.66
2019-03-20T00:09:54.906Z,101037.17
2019-03-20T00:12:22.727Z,101039.72
2019-03-20T00:14:50.517Z,101039.64
2019-03-20T00:17:18.420Z,101034.89
2019-03-20T00:19:46.185Z,101030.53
2019-03-20T00:22:14.006Z,101035.66
2019-03-20T00:24:41.785Z,101038.41
2019-03-20T00:27:09.748Z,101036.66
2019-03-20T00:29:37.561Z,101029.96
2019-03-20T00:32:05.294Z,101031.14
2019-03-20T00:34:33.109Z,101033.75
2019-03-20T00:37:00.883Z,101034.94
2019-03-20T00:39:28.707Z,101029.27
2019-03-20T00:41:56.463Z,101034.29
2019-03-20T00:44:24.278Z,101036.24
2019-03-20T00:46:52.051Z,101035.92
2019-03-20T00:49:19.846Z,101044.67
2019-03-20T00:51:47.630Z,101041.77
2019-03-20T00:57:23.624Z,101040.11
2019-03-20T00:59:51.495Z,101044.38
2019-03-20T01:02:19.277Z,101044.44
2019-03-20T01:04:47.125Z,101044.55
2019-03-20T01:07:39.535Z,101042.30
2019-03-20T01:10:10.536Z,101048.78
2019-03-20T01:12:38.899Z,101056.32
2019-03-20T01:15:07.266Z,101049.92
2019-03-20T01:17:35.043Z,101045.88
2019-03-20T01:20:03.350Z,101050.30
2019-03-20T01:22:31.148Z,101046.38
2019-03-20T01:24:58.981Z,101045.67
2019-03-20T01:27:26.817Z,101049.34
2019-03-20T01:29:54.630Z,101042.81
2019-03-20T01:32:22.379Z,101044.05
2019-03-20T01:34:50.226Z,101044.48
2019-03-20T01:37:17.925Z,101040.82
2019-03-20T01:39:46.583Z,101046.25
2019-03-20T01:42:14.368Z,101044.59
2019-03-20T01:44:42.208Z,101038.41
2019-03-20T01:47:10.189Z,101038.34
2019-03-20T01:49:38.008Z,101030.85
2019-03-20T01:52:05.816Z,101032.36
2019-03-20T01:54:33.669Z,101034.48
2019-03-20T01:57:06.485Z,101045.53
2019-03-20T01:59:34.260Z,101043.16
2019-03-20T02:02:02.038Z,101039.28
2019-03-20T02:04:29.835Z,101042.52
2019-03-20T02:06:57.782Z,101044.12
2019-03-20T02:09:25.600Z,101046.06
2019-03-20T02:11:53.333Z,101049.19
2019-03-20T02:14:21.161Z,101044.72
2019-03-20T02:16:49.185Z,101044.93
2019-03-20T02:19:16.928Z,101043.70
2019-03-20T02:21:44.675Z,101042.67
2019-03-20T02:24:12.485Z,101049.56
2019-03-20T02:26:40.288Z,101052.22
2019-03-20T02:29:08.081Z,101048.60
2019-03-20T02:31:35.817Z,101045.27
2019-03-20T02:34:03.582Z,101049.25
2019-03-20T02:36:46.385Z,101048.54
2019-03-20T02:39:14.185Z,101049.94
2019-03-20T02:41:41.926Z,101056.52
2019-03-20T02:44:09.663Z,101060.98
2019-03-20T02:46:42.990Z,101059.80
2019-03-20T02:51:49.086Z,101057.48
2019-03-20T02:54:16.888Z,101056.45
2019-03-20T02:56:44.692Z,101061.63
2019-03-20T02:59:12.448Z,101063.02
2019-03-20T03:01:40.241Z,101064.96
2019-03-20T03:04:07.988Z,101057.91
2019-03-20T03:06:35.805Z,101055.30
2019-03-20T03:09:06.715Z,101063.07
2019-03-20T03:11:34.487Z,101062.41
2019-03-20T03:14:02.488Z,101067.67
2019-03-20T03:16:30.237Z,101073.77
2019-03-20T03:18:58.010Z,101080.27
2019-03-20T03:21:25.787Z,101082.27
2019-03-20T03:23:53.571Z,101085.17
2019-03-20T03:26:52.132Z,101082.59
2019-03-20T03:29:19.942Z,101079.08
2019-03-20T03:31:47.705Z,101084.29
2019-03-20T03:34:16.614Z,101085.38
2019-03-20T03:36:44.599Z,101085.41
2019-03-20T03:39:12.434Z,101088.70
2019-03-20T03:41:40.220Z,101088.16
2019-03-20T03:44:08.020Z,101094.57
2019-03-20T03:46:35.939Z,101095.81
2019-03-20T03:49:03.846Z,101102.30
2019-03-20T03:51:31.596Z,101111.34
2019-03-20T03:53:59.455Z,101107.77
2019-03-20T03:56:27.374Z,101106.86
2019-03-20T03:58:55.154Z,101107.93
2019-03-20T04:01:22.928Z,101115.70
2019-03-20T04:03:50.724Z,101118.02
2019-03-20T04:06:18.705Z,101117.89
2019-03-20T04:08:46.486Z,101121.22
2019-03-20T04:11:25.840Z,101116.73
2019-03-20T04:13:58.567Z,101113.61
2019-03-20T04:17:25.978Z,101112.59
2019-03-20T04:19:53.798Z,101110.00
2019-03-20T04:22:21.632Z,101113.16
2019-03-20T04:24:49.396Z,101109.55
2019-03-20T04:27:17.283Z,101108.83
2019-03-20T04:29:45.072Z,101108.56
2019-03-20T04:32:12.866Z,101112.59
2019-03-20T04:34:40.708Z,101117.65
2019-03-20T04:37:08.686Z,101119.27
2019-03-20T04:39:36.503Z,101120.34
2019-03-20T04:42:04.300Z,101121.69
2019-03-20T04:44:32.079Z,101122.74
2019-03-20T04:47:00.052Z,101123.81
2019-03-20T04:49:27.868Z,101123.59
2019-03-20T04:51:55.636Z,101125.27
2019-03-20T04:54:23.469Z,101122.36
2019-03-20T04:56:51.224Z,101122.80
2019-03-20T04:59:19.000Z,101125.30
2019-03-20T05:01:46.783Z,101129.02
2019-03-20T05:04:14.581Z,101131.20
2019-03-20T05:06:42.380Z,101126.98
2019-03-20T05:09:10.849Z,101134.61
2019-03-20T05:11:38.709Z,101136.88
2019-03-20T05:14:06.555Z,101136.06
2019-03-20T05:16:34.318Z,101141.84
2019-03-20T05:19:02.650Z,101143.41
2019-03-20T05:21:30.442Z,101144.42
2019-03-20T05:23:58.256Z,101147.44
2019-03-20T05:26:26.153Z,101148.46
2019-03-20T05:28:53.893Z,101146.41
2019-03-20T05:31:21.685Z,101153.84
2019-03-20T05:33:49.476Z,101154.73
2019-03-20T05:36:17.506Z,101157.07
2019-03-20T05:38:45.292Z,101157.36
2019-03-20T05:41:13.143Z,101154.47
2019-03-20T05:43:40.931Z,101156.95
2019-03-20T05:46:11.505Z,101161.88
2019-03-20T05:48:39.261Z,101171.84
2019-03-20T05:51:07.085Z,101175.73
2019-03-20T05:53:34.850Z,101178.19
2019-03-20T05:56:02.625Z,101186.91
2019-03-20T05:58:30.392Z,101195.59
2019-03-20T06:00:58.187Z,101199.34
2019-03-20T06:03:26.874Z,101193.22
2019-03-20T06:05:55.234Z,101197.25
2019-03-20T06:08:23.102Z,101203.63
2019-03-20T06:10:50.939Z,101203.12
2019-03-20T06:13:18.733Z,101201.55
2019-03-20T06:15:46.674Z,101213.42
2019-03-20T06:18:14.474Z,101213.42
2019-03-20T06:20:42.285Z,101208.97
2019-03-20T06:23:11.202Z,101210.59
2019-03-20T06:25:39.342Z,101212.59
2019-03-20T06:28:07.114Z,101218.42
2019-03-20T06:30:34.979Z,101225.11
2019-03-20T06:33:02.750Z,101231.56
2019-03-20T06:35:30.547Z,101229.59
2019-03-20T06:37:58.341Z,101233.78
2019-03-20T06:40:26.199Z,101233.56
2019-03-20T06:42:55.412Z,101236.69
2019-03-20T06:45:23.305Z,101235.37
2019-03-20T06:47:51.111Z,101237.38
2019-03-20T06:50:19.122Z,101235.09
2019-03-20T06:52:48.692Z,101234.34
2019-03-20T06:55:16.671Z,101232.01
2019-03-20T06:57:44.461Z,101232.67
2019-03-20T07:00:59.989Z,101233.63
2019-03-20T07:03:36.786Z,101236.05
2019-03-20T07:07:00.642Z,101240.94
2019-03-20T07:10:16.331Z,101243.04
2019-03-20T07:12:44.091Z,101248.87
2019-03-20T07:15:11.844Z,101250.05
2019-03-20T07:17:39.581Z,101242.84
2019-03-20T07:20:08.734Z,101240.55
2019-03-20T07:22:36.545Z,101242.61
2019-03-20T07:25:04.823Z,101249.89
2019-03-20T07:27:32.540Z,101257.55
2019-03-20T07:30:00.367Z,101256.52
2019-03-20T07:32:29.994Z,101249.85
2019-03-20T07:34:57.791Z,101244.77
2019-03-20T07:37:25.582Z,101233.37
2019-03-20T07:39:53.439Z,101227.68
2019-03-20T07:42:21.223Z,101223.30
2019-03-20T07:44:49.044Z,101225.16
2019-03-20T07:47:16.976Z,101222.06
2019-03-20T07:49:44.733Z,101220.91
2019-03-20T07:52:12.484Z,101223.87
2019-03-20T07:54:40.229Z,101228.56
2019-03-20T07:57:27.492Z,101217.11
2019-03-20T07:59:55.308Z,101218.86
2019-03-20T08:02:23.074Z,101218.65
2019-03-20T08:04:50.884Z,101215.41
2019-03-20T08:07:18.619Z,101210.80
2019-03-20T08:09:46.414Z,101212.86
2019-03-20T08:12:14.154Z,101198.08
2019-03-20T08:14:41.973Z,101209.21
2019-03-20T08:17:09.750Z,101210.98
2019-03-20T08:19:37.515Z,101204.77
2019-03-20T08:22:05.328Z,101203.68
2019-03-20T08:24:33.107Z,101205.75
2019-03-20T08:27:00.935Z,101208.52
2019-03-20T08:29:29.445Z,101208.58
2019-03-20T08:31:57.330Z,101210.80
2019-03-20T08:34:25.070Z,101211.95
2019-03-20T08:37:03.114Z,101210.75
2019-03-20T08:39:30.927Z,101214.22
2019-03-20T08:41:58.706Z,101209.13
2019-03-20T08:44:26.473Z,101215.27
2019-03-20T08:46:54.331Z,101215.33
2019-03-20T08:49:22.057Z,101211.75
2019-03-20T08:51:49.870Z,101212.45
2019-03-20T08:54:17.657Z,101214.57
2019-03-20T08:56:45.494Z,101206.84
2019-03-20T08:59:13.271Z,101208.58
2019-03-20T09:01:41.122Z,101217.55
2019-03-20T09:04:08.842Z,101216.86
2019-03-20T09:06:36.811Z,101215.66
2019-03-20T09:09:07.309Z,101216.27
2019-03-20T09:11:35.086Z,101213.13
2019-03-20T09:14:02.821Z,101212.01
2019-03-20T09:16:30.895Z,101212.34
2019-03-20T09:18:58.862Z,101207.14
2019-03-20T09:21:26.995Z,101199.06
2019-03-20T09:23:54.831Z,101203.11
2019-03-20T09:26:22.958Z,101206.97
2019-03-20T09:28:50.942Z,101209.40
2019-03-20T09:31:18.760Z,101200.49
2019-03-20T09:33:46.645Z,101184.27
2019-03-20T09:36:14.655Z,101195.38
2019-03-20T09:38:43.666Z,101200.25
2019-03-20T09:41:12.419Z,101211.37
2019-03-20T09:43:40.864Z,101215.03
2019-03-20T09:46:09.275Z,101223.22
2019-03-20T09:48:37.600Z,101221.75
2019-03-20T09:51:05.373Z,101223.94
2019-03-20T09:53:33.177Z,101223.78
2019-03-20T09:56:01.013Z,101234.34
2019-03-20T09:58:28.795Z,101240.24
2019-03-20T10:00:56.603Z,101238.67
2019-03-20T10:03:24.373Z,101242.23
2019-03-20T10:05:52.170Z,101244.95
2019-03-20T10:08:19.975Z,101239.89
2019-03-20T10:10:47.771Z,101237.59
2019-03-20T10:13:15.565Z,101234.01
2019-03-20T10:15:43.364Z,101234.63
2019-03-20T10:18:11.140Z,101228.89
2019-03-20T10:20:38.958Z,101222.52
2019-03-20T10:23:06.716Z,101220.16
2019-03-20T10:25:44.070Z,101226.89
2019-03-20T10:28:04.298Z,101219.98
2019-03-20T10:30:32.076Z,101220.93
2019-03-20T10:32:59.965Z,101216.42
2019-03-20T10:35:27.835Z,101216.50
2019-03-20T10:37:55.639Z,101221.94
2019-03-20T10:40:23.492Z,101209.53
2019-03-20T10:42:51.421Z,101197.51
2019-03-20T10:45:19.494Z,101191.14
2019-03-20T10:47:47.655Z,101178.34
2019-03-20T10:50:17.658Z,101173.80
2019-03-20T10:52:45.488Z,101170.23
2019-03-20T10:55:13.386Z,101173.11
2019-03-20T10:57:41.256Z,101163.05
2019-03-20T11:00:15.999Z,101159.91
2019-03-20T11:02:43.972Z,101157.57
2019-03-20T11:05:11.866Z,101151.14
2019-03-20T11:07:50.177Z,101149.68
2019-03-20T11:10:20.708Z,101149.69
2019-03-20T11:12:48.510Z,101148.21
2019-03-20T11:15:16.382Z,101141.87
2019-03-20T11:17:44.153Z,101148.29
2019-03-20T11:20:14.403Z,101145.49
2019-03-20T11:22:42.207Z,101150.64
2019-03-20T11:25:11.675Z,101140.98
2019-03-20T11:27:39.480Z,101136.13
2019-03-20T11:30:32.821Z,101136.98
2019-03-20T11:33:01.695Z,101132.17
2019-03-20T11:35:29.490Z,101125.00
2019-03-20T11:37:57.307Z,101127.36
2019-03-20T11:40:26.989Z,101127.46
2019-03-20T11:42:55.015Z,101124.69
2019-03-20T11:45:23.667Z,101124.97
2019-03-20T11:47:51.842Z,101121.37
2019-03-20T11:50:32.772Z,101114.70
2019-03-20T11:53:00.645Z,101108.47
2019-03-20T11:55:28.437Z,101109.76
2019-03-20T11:57:56.236Z,101111.09
2019-03-20T12:00:24.203Z,101110.33
2019-03-20T12:02:52.021Z,101104.67
2019-03-20T12:05:19.811Z,101102.66
2019-03-20T12:07:47.613Z,101096.61
2019-03-20T12:10:20.278Z,101102.68
2019-03-20T12:12:48.020Z,101098.73
2019-03-20T12:15:16.493Z,101088.69
2019-03-20T12:17:44.547Z,101086.89
2019-03-20T12:20:15.100Z,101092.93
2019-03-20T12:22:44.005Z,101089.11
2019-03-20T12:25:18.654Z,101092.42
2019-03-20T12:27:48.440Z,101097.42
2019-03-20T12:30:19.159Z,101091.22
2019-03-20T12:32:46.961Z,101087.95
2019-03-20T12:35:15.206Z,101081.31
2019-03-20T12:37:43.064Z,101079.84
2019-03-20T12:40:16.280Z,101084.13
2019-03-20T12:42:44.083Z,101082.52
2019-03-20T12:45:13.712Z,101077.87
2019-03-20T12:47:46.783Z,101070.15
2019-03-20T12:50:14.630Z,101072.67
2019-03-20T12:52:42.473Z,101070.45
2019-03-20T12:55:11.261Z,101064.25
2019-03-20T12:57:39.074Z,101066.30
2019-03-20T13:00:14.254Z,101067.31
2019-03-20T13:02:42.228Z,101063.95
2019-03-20T13:05:10.123Z,101061.63
2019-03-20T13:07:38.106Z,101053.97
2019-03-20T13:10:08.062Z,101046.16
2019-03-20T13:12:35.832Z,101038.65
2019-03-20T13:15:05.515Z,101023.03
2019-03-20T13:17:33.465Z,101039.09
2019-03-20T13:20:01.304Z,101038.47
2019-03-20T13:22:29.074Z,101036.39
2019-03-20T13:24:56.892Z,101040.66
2019-03-20T13:27:24.790Z,101037.69
2019-03-20T13:29:52.617Z,101038.85
2019-03-20T13:32:20.576Z,101042.80
2019-03-20T13:34:48.379Z,101036.87
2019-03-20T13:37:16.450Z,101035.27
2019-03-20T13:39:44.272Z,101029.56
2019-03-20T13:42:12.057Z,101028.16
2019-03-20T13:44:39.933Z,101026.45
2019-03-20T13:47:08.284Z,101027.34
2019-03-20T13:49:36.199Z,101031.65
2019-03-20T13:52:03.934Z,101034.24
2019-03-20T13:54:31.786Z,101031.17
2019-03-20T13:56:59.553Z,101027.88
2019-03-20T13:59:27.392Z,101027.97
2019-03-20T14:01:55.292Z,101020.27
2019-03-20T14:04:23.253Z,101027.17
2019-03-20T14:06:51.037Z,101035.83
2019-03-20T14:09:18.867Z,101035.00
2019-03-20T14:11:46.779Z,101037.48
2019-03-20T14:14:14.652Z,101038.13
2019-03-20T14:16:42.508Z,101033.67
2019-03-20T14:19:10.683Z,101030.95
2019-03-20T14:21:38.532Z,101036.23
2019-03-20T14:24:06.530Z,101033.91
2019-03-20T14:26:34.907Z,101024.64
2019-03-20T14:29:02.752Z,101018.30
2019-03-20T14:31:32.875Z,101022.84
2019-03-20T14:34:00.643Z,101022.53
2019-03-20T14:36:33.670Z,101020.05
2019-03-20T14:39:01.490Z,101024.42
2019-03-20T14:41:29.409Z,101018.31
2019-03-20T14:43:57.238Z,101012.31
2019-03-20T14:46:30.251Z,101019.74
2019-03-20T14:48:58.098Z,101018.61
2019-03-20T14:51:25.970Z,101029.94
2019-03-20T14:53:53.794Z,101027.37
2019-03-20T14:56:21.551Z,101035.03
2019-03-20T14:58:50.058Z,101043.64
2019-03-20T15:01:17.834Z,101039.95
2019-03-20T15:03:45.672Z,101044.91
2019-03-20T15:06:18.786Z,101040.39
2019-03-20T15:08:47.040Z,101038.81
2019-03-20T15:11:14.811Z,101037.23
2019-03-20T15:13:42.658Z,101034.48
2019-03-20T15:16:12.022Z,101042.35
2019-03-20T15:18:40.152Z,101043.21
2019-03-20T15:21:07.941Z,101036.42
2019-03-20T15:23:35.841Z,101028.12
2019-03-20T15:26:08.963Z,101025.79
2019-03-20T15:28:36.768Z,101025.41
2019-03-20T15:31:04.551Z,101028.64
2019-03-20T15:33:32.306Z,101023.14
2019-03-20T15:36:00.378Z,101018.59
2019-03-20T15:38:28.175Z,101020.20
2019-03-20T15:41:04.838Z,101013.55
2019-03-20T15:43:32.688Z,100996.36
2019-03-20T15:46:00.617Z,101014.73
2019-03-20T15:48:28.528Z,101010.25
2019-03-20T15:50:56.315Z,101006.50
2019-03-20T15:53:24.138Z,101002.13
2019-03-20T15:55:52.679Z,101007.54
2019-03-20T15:58:20.463Z,101010.67
2019-03-20T16:00:48.315Z,101018.67
2019-03-20T16:03:17.046Z,101017.55
2019-03-20T16:05:45.454Z,101018.97
2019-03-20T16:08:13.255Z,101015.34
2019-03-20T16:10:41.133Z,101005.52
2019-03-20T16:13:08.942Z,101006.31
2019-03-20T16:15:37.081Z,101005.84
2019-03-20T16:18:04.902Z,101013.41
2019-03-20T16:20:32.749Z,101014.74
2019-03-20T16:23:00.620Z,101011.29
2019-03-20T16:25:28.505Z,101014.83
2019-03-20T16:27:58.819Z,101008.59
2019-03-20T16:30:26.598Z,101009.73
2019-03-20T16:32:56.402Z,101010.20
2019-03-20T16:35:24.251Z,101010.00
2019-03-20T16:37:52.185Z,101012.20
2019-03-20T16:40:22.001Z,101020.69
2019-03-20T16:42:50.129Z,101023.19
2019-03-20T16:45:23.883Z,101022.23
2019-03-20T16:47:51.852Z,101025.84
2019-03-20T16:50:19.631Z,101022.67
2019-03-20T16:52:47.680Z,101031.28
2019-03-20T16:55:15.402Z,101034.03
2019-03-20T16:57:44.043Z,101034.83
2019-03-20T17:00:16.781Z,101035.63
2019-03-20T17:02:44.573Z,101038.80
2019-03-20T17:05:12.388Z,101045.25
2019-03-20T17:07:40.415Z,101053.37
2019-03-20T17:10:13.487Z,101054.77
2019-03-20T17:12:41.237Z,101064.89
2019-03-20T17:15:14.798Z,101064.30
2019-03-20T17:17:43.107Z,101065.16
2019-03-20T17:20:11.039Z,101066.19
2019-03-20T17:22:42.119Z,101064.62
2019-03-20T17:25:09.343Z,101066.78
2019-03-20T17:27:37.235Z,101073.64
2019-03-20T17:30:12.360Z,101076.98
2019-03-20T17:32:40.144Z,101084.80
2019-03-20T17:35:08.218Z,101085.73
2019-03-20T17:37:41.236Z,101089.08
2019-03-20T17:40:11.316Z,101090.20
2019-03-20T17:42:39.126Z,101088.50
2019-03-20T17:45:07.500Z,101098.55
2019-03-20T17:47:35.287Z,101099.13
2019-03-20T17:50:05.758Z,101098.27
2019-03-20T17:52:33.604Z,101113.70
2019-03-20T17:55:01.452Z,101114.54
2019-03-20T17:57:29.492Z,101122.30
2019-03-20T17:59:57.297Z,101121.39
2019-03-20T18:02:25.126Z,101117.09
2019-03-20T18:04:53.088Z,101124.50
2019-03-20T18:07:36.007Z,101129.50
2019-03-20T18:10:06.832Z,101126.09
2019-03-20T18:12:34.643Z,101127.27
2019-03-20T18:15:03.193Z,101129.64
2019-03-20T18:17:36.266Z,101132.66
2019-03-20T18:20:04.879Z,101133.30
2019-03-20T18:22:32.740Z,101128.50
2019-03-20T18:25:00.568Z,101139.72
2019-03-20T18:27:28.467Z,101140.33
2019-03-20T18:29:56.323Z,101143.55
2019-03-20T18:32:24.180Z,101150.02
2019-03-20T18:34:52.063Z,101151.78
2019-03-20T18:37:25.231Z,101154.41
2019-03-20T18:39:53.113Z,101157.87
2019-03-20T18:42:20.983Z,101158.70
2019-03-20T18:44:49.063Z,101162.85
2019-03-20T18:47:16.910Z,101169.76
2019-03-20T18:49:44.769Z,101166.94
2019-03-20T18:52:12.615Z,101163.77
2019-03-20T18:54:40.393Z,101170.69
2019-03-20T18:57:08.187Z,101173.27
2019-03-20T18:59:36.192Z,101169.64
2019-03-20T19:02:04.473Z,101169.96
2019-03-20T19:04:32.330Z,101170.16
2019-03-20T19:07:00.111Z,101177.43
2019-03-20T19:09:27.995Z,101180.56
2019-03-20T19:11:55.943Z,101177.40
2019-03-20T19:14:23.755Z,101177.91
2019-03-20T19:16:52.067Z,101179.86
2019-03-20T19:19:19.816Z,101184.84
2019-03-20T19:21:47.684Z,101191.09
2019-03-20T19:24:15.481Z,101198.66
2019-03-20T19:26:43.507Z,101193.69
2019-03-20T19:29:11.456Z,101198.00
2019-03-20T19:31:39.287Z,101203.42
2019-03-20T19:34:07.141Z,101202.66
2019-03-20T19:36:35.119Z,101209.23
2019-03-20T19:39:10.323Z,101208.44
2019-03-20T19:41:38.870Z,101215.25
2019-03-20T19:44:07.179Z,101221.61
2019-03-20T19:46:35.667Z,101216.30
2019-03-20T19:49:03.969Z,101224.44
2019-03-20T19:51:32.381Z,101228.89
2019-03-20T19:54:00.714Z,101232.47
2019-03-20T19:56:29.165Z,101228.33
2019-03-20T19:58:57.601Z,101229.95
2019-03-20T20:01:26.077Z,101230.75
2019-03-20T20:03:54.362Z,101234.16
2019-03-20T20:06:22.430Z,101236.78
2019-03-20T20:08:50.338Z,101236.41
2019-03-20T20:11:18.186Z,101235.11
2019-03-20T20:13:45.984Z,101238.92
2019-03-20T20:16:14.125Z,101243.67
2019-03-20T20:18:41.991Z,101239.02
2019-03-20T20:21:09.882Z,101244.38
2019-03-20T20:23:37.788Z,101242.80
2019-03-20T20:26:05.893Z,101247.22
2019-03-20T20:28:33.779Z,101246.95
2019-03-20T20:31:01.649Z,101246.72
2019-03-20T20:33:29.471Z,101251.09
2019-03-20T20:35:58.713Z,101229.08
2019-03-20T20:38:26.547Z,101258.81
2019-03-20T20:40:54.454Z,101256.33
2019-03-20T20:43:22.265Z,101263.58
2019-03-20T20:46:05.138Z,101262.56
2019-03-20T20:48:33.018Z,101263.75
2019-03-20T20:51:00.906Z,101263.89
2019-03-20T20:53:28.710Z,101254.24
2019-03-20T20:55:56.807Z,101257.17
2019-03-20T20:58:24.637Z,101266.23
2019-03-20T21:00:52.439Z,101271.23
2019-03-20T21:03:20.227Z,101272.42
2019-03-20T21:05:48.076Z,101271.04
2019-03-20T21:08:15.971Z,101267.86
2019-03-20T21:10:43.856Z,101265.62
2019-03-20T21:13:11.905Z,101270.59
2019-03-20T21:15:46.742Z,101276.12
2019-03-20T21:19:23.861Z,101275.61
2019-03-20T21:23:00.479Z,101286.27
2019-03-20T21:25:29.122Z,101283.86
2019-03-20T21:29:15.253Z,101284.13
2019-03-20T21:32:15.910Z,101282.91
2019-03-20T21:35:51.718Z,101289.05
2019-03-20T21:38:18.026Z,101282.67
2019-03-20T21:41:41.710Z,101284.19
2019-03-20T21:45:44.184Z,101280.42
2019-03-20T21:48:12.803Z,101292.22
2019-03-20T21:51:15.081Z,101295.84
2019-03-20T21:54:33.584Z,101292.61
2019-03-20T21:57:58.751Z,101294.41
2019-03-20T22:01:31.431Z,101288.00
2019-03-20T22:04:00.978Z,101290.68
2019-03-20T22:07:04.743Z,101288.34
2019-03-20T22:10:33.158Z,101285.11
2019-03-20T22:13:31.339Z,101287.27
2019-03-20T22:17:09.738Z,101287.62
2019-03-20T22:19:56.367Z,101285.94
2019-03-20T22:23:48.416Z,101284.97
2019-03-20T22:27:26.592Z,101283.05
2019-03-20T22:29:55.253Z,101287.59
2019-03-20T22:33:28.210Z,101291.16
2019-03-20T22:36:11.613Z,101289.43
2019-03-20T22:39:38.973Z,101293.45
2019-03-20T22:42:39.779Z,101286.00
2019-03-20T22:45:33.432Z,101288.91
2019-03-20T22:49:14.767Z,101291.04
2019-03-20T22:52:31.067Z,101287.00
2019-03-20T22:56:00.957Z,101293.44
2019-03-20T22:58:44.622Z,101293.18
2019-03-20T23:01:27.750Z,101294.71
2019-03-20T23:04:03.611Z,101303.01
2019-03-20T23:07:12.031Z,101297.23
2019-03-20T23:09:40.636Z,101304.77
2019-03-20T23:12:12.770Z,101308.33
2019-03-20T23:14:41.377Z,101303.83
2019-03-20T23:17:10.275Z,101301.99
2019-03-20T23:19:42.200Z,101304.99
2019-03-20T23:22:11.329Z,101304.64
2019-03-20T23:24:39.943Z,101297.91
2019-03-20T23:27:33.061Z,101299.88
2019-03-20T23:30:03.850Z,101294.88
2019-03-20T23:32:32.467Z,101290.36
2019-03-20T23:35:01.130Z,101289.55
2019-03-20T23:37:29.757Z,101290.13
2019-03-20T23:39:58.440Z,101296.78
2019-03-20T23:42:27.615Z,101293.30
2019-03-20T23:44:56.299Z,101295.63
2019-03-20T23:47:50.335Z,101296.98
2019-03-20T23:50:20.057Z,101298.75
2019-03-20T23:52:48.686Z,101303.28
2019-03-20T23:55:17.296Z,101299.59
2019-03-20T23:57:45.946Z,101300.72
